createdAt,value
2023-03-01T00:02:12.621Z,99526.50
2023-03-01T00:04:39.104Z,99523.34
2023-03-01T00:07:05.564Z,99516.91
2023-03-01T00:09:32.026Z,99523.94
2023-03-01T00:11:58.496Z,99515.03
2023-03-01T00:14:25.250Z,99511.97
2023-03-01T00:16:51.764Z,99508.38
2023-03-01T00:19:19.200Z,99512.84
2023-03-01T00:21:45.783Z,99517.31
2023-03-01T00:24:12.333Z,99517.97
2023-03-01T00:26:38.805Z,99515.19
2023-03-01T00:29:05.294Z,99521.94
2023-03-01T00:31:32.477Z,99520.69
2023-03-01T00:34:00.769Z,99518.91
2023-03-01T00:36:30.559Z,99532.13
2023-03-01T00:38:57.252Z,99525.53
2023-03-01T00:41:23.915Z,99515.59
2023-03-01T00:43:50.789Z,99511.53
2023-03-01T00:46:18.830Z,99500.03
2023-03-01T00:48:45.627Z,99505.97
2023-03-01T00:51:23.318Z,99501.19
2023-03-01T00:53:53.620Z,99511.50
2023-03-01T00:56:20.097Z,99511.03
2023-03-01T00:58:46.692Z,99507.44
2023-03-01T01:01:18.298Z,99508.69
2023-03-01T01:03:49.578Z,99509.34
2023-03-01T01:06:20.383Z,99510.56
2023-03-01T01:08:46.889Z,99498.81
2023-03-01T01:11:13.403Z,99499.69
2023-03-01T01:13:40.297Z,99490.31
2023-03-01T01:16:07.174Z,99496.13
2023-03-01T01:18:33.736Z,99496.19
2023-03-01T01:21:05.071Z,99485.28
2023-03-01T01:23:31.529Z,99497.25
2023-03-01T01:25:57.993Z,99492.00
2023-03-01T01:28:24.569Z,99494.13
2023-03-01T01:30:51.062Z,99480.69
2023-03-01T01:33:17.543Z,99487.97
2023-03-01T01:35:46.237Z,99484.44
2023-03-01T01:38:12.755Z,99489.75
2023-03-01T01:40:48.603Z,99484.78
2023-03-01T01:43:23.473Z,99481.94
2023-03-01T01:45:50.366Z,99481.97
2023-03-01T01:48:24.633Z,99479.88
2023-03-01T01:50:57.781Z,99476.06
2023-03-01T01:53:24.244Z,99471.34
2023-03-01T01:55:54.287Z,99470.25
2023-03-01T01:58:20.608Z,99466.13
2023-03-01T02:00:47.072Z,99471.66
2023-03-01T02:03:18.288Z,99468.38
2023-03-01T02:05:55.500Z,99461.06
2023-03-01T02:08:22.657Z,99460.25
2023-03-01T02:10:55.700Z,99456.84
2023-03-01T02:13:22.165Z,99458.97
2023-03-01T02:15:48.668Z,99460.03
2023-03-01T02:18:17.370Z,99455.63
2023-03-01T02:20:51.691Z,99448.13
2023-03-01T02:23:18.162Z,99452.06
2023-03-01T02:26:05.522Z,99453.72
2023-03-01T02:28:36.193Z,99454.00
2023-03-01T02:31:21.698Z,99453.38
2023-03-01T02:33:49.420Z,99447.59
2023-03-01T02:36:21.212Z,99447.03
2023-03-01T02:38:48.813Z,99450.31
2023-03-01T02:41:16.401Z,99455.19
2023-03-01T02:43:42.910Z,99445.72
2023-03-01T02:46:17.392Z,99440.78
2023-03-01T02:48:48.959Z,99439.00
2023-03-01T02:51:57.512Z,99431.31
2023-03-01T02:54:49.844Z,99422.91
2023-03-01T02:57:16.515Z,99417.59
2023-03-01T02:59:43.545Z,99424.47
2023-03-01T03:02:36.931Z,99417.28
2023-03-01T03:05:27.592Z,99413.25
2023-03-01T03:07:54.157Z,99411.59
2023-03-01T03:10:28.988Z,99412.53
2023-03-01T03:12:58.788Z,99404.16
2023-03-01T03:15:25.414Z,99404.75
2023-03-01T03:17:52.421Z,99404.84
2023-03-01T03:20:20.343Z,99398.94
2023-03-01T03:22:48.147Z,99394.22
2023-03-01T03:25:14.662Z,99397.84
2023-03-01T03:27:41.853Z,99396.66
2023-03-01T03:30:09.877Z,99396.16
2023-03-01T03:32:37.373Z,99391.53
2023-03-01T03:35:10.326Z,99394.50
2023-03-01T03:37:56.906Z,99394.72
2023-03-01T03:40:23.391Z,99387.28
2023-03-01T03:42:49.862Z,99394.97
2023-03-01T03:45:17.212Z,99389.25
2023-03-01T03:47:44.002Z,99397.31
2023-03-01T03:50:17.884Z,99402.19
2023-03-01T03:52:44.388Z,99403.34
2023-03-01T03:55:14.493Z,99400.41
2023-03-01T03:57:41.132Z,99407.16
2023-03-01T04:00:14.199Z,99392.25
2023-03-01T04:02:42.040Z,99396.66
2023-03-01T04:05:10.002Z,99392.63
2023-03-01T04:07:37.165Z,99394.25
2023-03-01T04:10:08.001Z,99391.91
2023-03-01T04:12:35.097Z,99394.97
2023-03-01T04:15:14.603Z,99394.22
2023-03-01T04:17:40.921Z,99399.31
2023-03-01T04:20:08.688Z,99387.16
2023-03-01T04:22:35.150Z,99392.16
2023-03-01T04:25:02.952Z,99387.16
2023-03-01T04:27:29.410Z,99388.47
2023-03-01T04:29:55.878Z,99384.13
2023-03-01T04:32:22.375Z,99386.72
2023-03-01T04:34:48.844Z,99385.31
2023-03-01T04:37:16.899Z,99393.53
2023-03-01T04:39:48.596Z,99387.06
2023-03-01T04:42:18.185Z,99391.78
2023-03-01T04:44:45.219Z,99390.50
2023-03-01T04:47:11.689Z,99393.81
2023-03-01T04:49:38.164Z,99388.13
2023-03-01T04:52:04.963Z,99389.06
2023-03-01T04:54:32.051Z,99383.78
2023-03-01T04:56:58.558Z,99390.13
2023-03-01T04:59:25.289Z,99384.81
2023-03-01T05:01:52.432Z,99393.41
2023-03-01T05:04:19.163Z,99390.94
2023-03-01T05:06:45.683Z,99391.66
2023-03-01T05:09:12.393Z,99395.66
2023-03-01T05:11:39.052Z,99386.19
2023-03-01T05:14:06.454Z,99389.22
2023-03-01T05:16:35.949Z,99385.53
2023-03-01T05:19:12.202Z,99381.63
2023-03-01T05:22:02.333Z,99369.91
2023-03-01T05:24:29.522Z,99375.03
2023-03-01T05:26:56.168Z,99383.78
2023-03-01T05:29:25.914Z,99371.00
2023-03-01T05:31:54.316Z,99361.00
2023-03-01T05:34:24.883Z,99367.91
2023-03-01T05:36:54.004Z,99365.81
2023-03-01T05:39:22.505Z,99364.16
2023-03-01T05:41:49.930Z,99360.50
2023-03-01T05:44:16.908Z,99360.47
2023-03-01T05:46:43.695Z,99374.41
2023-03-01T05:49:10.183Z,99366.28
2023-03-01T05:51:36.894Z,99376.66
2023-03-01T05:54:03.478Z,99375.44
2023-03-01T05:56:30.587Z,99367.66
2023-03-01T05:58:57.185Z,99377.13
2023-03-01T06:01:23.678Z,99378.44
2023-03-01T06:03:50.145Z,99382.44
2023-03-01T06:06:16.718Z,99379.28
2023-03-01T06:08:43.198Z,99378.69
2023-03-01T06:11:09.718Z,99381.06
2023-03-01T06:13:36.482Z,99387.53
2023-03-01T06:16:06.306Z,99392.94
2023-03-01T06:18:32.808Z,99376.31
2023-03-01T06:20:59.290Z,99381.94
2023-03-01T06:23:25.831Z,99387.06
2023-03-01T06:25:52.327Z,99384.81
2023-03-01T06:28:18.782Z,99385.13
2023-03-01T06:30:45.295Z,99378.88
2023-03-01T06:33:11.762Z,99371.84
2023-03-01T06:35:38.351Z,99367.50
2023-03-01T06:38:05.003Z,99374.41
2023-03-01T06:40:32.207Z,99367.94
2023-03-01T06:42:58.885Z,99374.91
2023-03-01T06:45:25.467Z,99379.34
2023-03-01T06:47:51.935Z,99377.28
2023-03-01T06:50:18.725Z,99384.13
2023-03-01T06:55:13.176Z,99379.72
2023-03-01T06:57:39.655Z,99377.81
2023-03-01T07:00:06.855Z,99374.38
2023-03-01T07:02:33.356Z,99371.00
2023-03-01T07:04:59.817Z,99377.38
2023-03-01T07:07:26.323Z,99372.53
2023-03-01T07:09:54.133Z,99353.53
2023-03-01T07:12:20.657Z,99359.31
2023-03-01T07:14:47.133Z,99355.88
2023-03-01T07:17:13.634Z,99349.84
2023-03-01T07:19:40.111Z,99347.94
2023-03-01T07:22:08.767Z,99347.28
2023-03-01T07:24:35.271Z,99352.94
2023-03-01T07:27:01.759Z,99342.75
2023-03-01T07:29:29.756Z,99352.81
2023-03-01T07:31:56.281Z,99343.13
2023-03-01T07:34:22.745Z,99338.22
2023-03-01T07:36:49.299Z,99339.63
2023-03-01T07:39:16.735Z,99333.13
2023-03-01T07:41:44.528Z,99337.00
2023-03-01T07:44:11.744Z,99325.16
2023-03-01T07:46:38.311Z,99330.44
2023-03-01T07:49:05.543Z,99333.25
2023-03-01T07:51:32.099Z,99331.19
2023-03-01T07:53:58.559Z,99330.41
2023-03-01T07:56:25.091Z,99331.28
2023-03-01T07:58:51.569Z,99326.72
2023-03-01T08:01:20.706Z,99329.31
2023-03-01T08:03:47.354Z,99330.47
2023-03-01T08:06:15.508Z,99321.38
2023-03-01T08:08:41.995Z,99324.28
2023-03-01T08:11:09.392Z,99316.66
2023-03-01T08:13:35.894Z,99310.19
2023-03-01T08:16:04.008Z,99305.97
2023-03-01T08:18:30.573Z,99307.41
2023-03-01T08:20:57.049Z,99307.03
2023-03-01T08:23:23.567Z,99311.53
2023-03-01T08:25:50.234Z,99317.59
2023-03-01T08:28:16.747Z,99310.00
2023-03-01T08:30:43.228Z,99309.19
2023-03-01T08:33:09.766Z,99315.00
2023-03-01T08:35:36.284Z,99310.13
2023-03-01T08:38:02.789Z,99317.03
2023-03-01T08:40:29.276Z,99316.47
2023-03-01T08:42:55.771Z,99309.34
2023-03-01T08:45:22.277Z,99298.09
2023-03-01T08:47:48.807Z,99294.03
2023-03-01T08:50:15.502Z,99301.09
2023-03-01T08:52:42.025Z,99301.69
2023-03-01T08:55:09.050Z,99301.41
2023-03-01T08:57:35.535Z,99307.00
2023-03-01T09:00:02.086Z,99300.88
2023-03-01T09:02:28.714Z,99308.78
2023-03-01T09:04:55.206Z,99309.16
2023-03-01T09:07:21.699Z,99307.84
2023-03-01T09:09:48.206Z,99302.41
2023-03-01T09:12:14.781Z,99293.69
2023-03-01T09:14:42.135Z,99296.88
2023-03-01T09:17:08.629Z,99301.56
2023-03-01T09:19:35.151Z,99300.47
2023-03-01T09:22:01.820Z,99292.59
2023-03-01T09:24:28.317Z,99296.88
2023-03-01T09:26:55.696Z,99297.75
2023-03-01T09:29:22.188Z,99282.72
2023-03-01T09:31:48.748Z,99274.78
2023-03-01T09:34:17.119Z,99283.00
2023-03-01T09:36:43.649Z,99288.75
2023-03-01T09:39:10.144Z,99283.56
2023-03-01T09:41:49.356Z,99280.84
2023-03-01T09:44:34.231Z,99274.81
2023-03-01T09:47:00.881Z,99277.59
2023-03-01T09:49:31.338Z,99281.97
2023-03-01T09:52:20.342Z,99278.94
2023-03-01T09:54:47.635Z,99283.59
2023-03-01T09:57:20.538Z,99282.75
2023-03-01T10:00:05.386Z,99280.81
2023-03-01T10:02:39.533Z,99280.25
2023-03-01T10:05:32.419Z,99271.47
2023-03-01T10:08:24.656Z,99268.47
2023-03-01T10:10:51.170Z,99265.72
2023-03-01T10:13:22.409Z,99258.00
2023-03-01T10:15:56.235Z,99250.63
2023-03-01T10:18:30.318Z,99258.53
2023-03-01T10:20:59.756Z,99248.13
2023-03-01T10:23:28.934Z,99254.72
2023-03-01T10:25:58.317Z,99258.88
2023-03-01T10:28:32.345Z,99260.38
2023-03-01T10:30:59.423Z,99242.84
2023-03-01T10:33:30.472Z,99260.19
2023-03-01T10:35:57.010Z,99261.56
2023-03-01T10:38:23.568Z,99244.22
2023-03-01T10:41:19.524Z,99243.56
2023-03-01T10:43:53.603Z,99244.50
2023-03-01T10:46:30.929Z,99254.81
2023-03-01T10:49:14.767Z,99260.28
2023-03-01T10:51:42.041Z,99242.72
2023-03-01T10:54:18.867Z,99234.16
2023-03-01T10:56:54.591Z,99239.50
2023-03-01T10:59:33.082Z,99240.81
2023-03-01T11:02:25.383Z,99237.91
2023-03-01T11:05:14.012Z,99230.75
2023-03-01T11:07:54.066Z,99234.22
2023-03-01T11:10:31.333Z,99238.53
2023-03-01T11:13:16.021Z,99225.75
2023-03-01T11:15:42.584Z,99219.22
2023-03-01T11:18:20.453Z,99220.84
2023-03-01T11:20:47.026Z,99218.72
2023-03-01T11:23:14.236Z,99214.69
2023-03-01T11:25:45.258Z,99213.94
2023-03-01T11:28:15.562Z,99213.03
2023-03-01T11:31:05.591Z,99195.38
2023-03-01T11:33:57.667Z,99208.78
2023-03-01T11:36:50.495Z,99215.66
2023-03-01T11:39:33.837Z,99222.09
2023-03-01T11:42:19.360Z,99211.53
2023-03-01T11:44:47.318Z,99199.59
2023-03-01T11:47:32.339Z,99215.72
2023-03-01T11:50:07.874Z,99203.56
2023-03-01T11:52:53.412Z,99217.34
2023-03-01T11:55:37.694Z,99211.88
2023-03-01T11:58:15.136Z,99201.25
2023-03-01T12:00:56.719Z,99184.59
2023-03-01T12:03:43.485Z,99178.78
2023-03-01T12:06:25.199Z,99174.69
2023-03-01T12:09:02.352Z,99171.78
2023-03-01T12:11:59.142Z,99169.84
2023-03-01T12:14:47.443Z,99173.81
2023-03-01T12:17:45.982Z,99186.09
2023-03-01T12:20:15.574Z,99161.34
2023-03-01T12:22:54.980Z,99158.00
2023-03-01T12:25:40.704Z,99164.81
2023-03-01T12:28:24.976Z,99145.13
2023-03-01T12:31:01.483Z,99147.13
2023-03-01T12:33:46.818Z,99149.88
2023-03-01T12:36:16.571Z,99148.56
2023-03-01T12:38:47.277Z,99120.88
2023-03-01T12:41:52.441Z,99141.31
2023-03-01T12:44:29.231Z,99121.69
2023-03-01T12:47:17.140Z,99155.09
2023-03-01T12:49:49.262Z,99126.81
2023-03-01T12:52:36.842Z,99126.00
2023-03-01T12:55:03.774Z,99131.81
2023-03-01T12:57:38.121Z,99123.72
2023-03-01T13:00:38.176Z,99116.19
2023-03-01T13:03:17.665Z,99106.13
2023-03-01T13:06:09.134Z,99111.91
2023-03-01T13:08:42.875Z,99113.13
2023-03-01T13:11:17.691Z,99085.56
2023-03-01T13:13:44.161Z,99091.47
2023-03-01T13:16:40.785Z,99104.69
2023-03-01T13:19:11.329Z,99100.47
2023-03-01T13:21:37.823Z,99102.13
2023-03-01T13:24:04.589Z,99108.84
2023-03-01T13:26:31.549Z,99092.19
2023-03-01T13:28:58.418Z,99086.03
2023-03-01T13:31:27.823Z,99090.97
2023-03-01T13:33:55.682Z,99080.25
2023-03-01T13:36:49.076Z,99085.66
2023-03-01T13:39:32.279Z,99075.97
2023-03-01T13:41:58.875Z,99079.81
2023-03-01T13:44:25.414Z,99083.25
2023-03-01T13:46:52.686Z,99084.25
2023-03-01T13:49:23.747Z,99074.50
2023-03-01T13:51:50.516Z,99083.00
2023-03-01T13:54:19.414Z,99085.28
2023-03-01T13:56:45.880Z,99069.03
2023-03-01T13:59:20.119Z,99072.06
2023-03-01T14:01:53.341Z,99075.13
2023-03-01T14:04:22.251Z,99063.25
2023-03-01T14:06:48.746Z,99074.03
2023-03-01T14:09:24.749Z,99066.06
2023-03-01T14:12:03.438Z,99057.44
2023-03-01T14:14:46.353Z,99061.69
2023-03-01T14:17:37.942Z,99067.00
2023-03-01T14:20:12.759Z,99076.63
2023-03-01T14:22:39.393Z,99064.91
2023-03-01T14:25:26.036Z,99070.16
2023-03-01T14:28:17.524Z,99069.63
2023-03-01T14:30:45.752Z,99073.84
2023-03-01T14:33:26.243Z,99064.47
2023-03-01T14:36:00.602Z,99057.66
2023-03-01T14:38:35.593Z,99059.38
2023-03-01T14:41:08.290Z,99065.31
2023-03-01T14:43:34.778Z,99064.66
2023-03-01T14:46:01.291Z,99061.28
2023-03-01T14:48:28.179Z,99068.63
2023-03-01T14:50:54.698Z,99075.91
2023-03-01T14:53:25.891Z,99067.47
2023-03-01T14:55:56.930Z,99053.75
2023-03-01T14:58:25.555Z,99052.75
2023-03-01T15:00:54.381Z,99046.97
2023-03-01T15:03:38.099Z,99056.34
2023-03-01T15:06:05.334Z,99051.22
2023-03-01T15:08:34.015Z,99047.66
2023-03-01T15:11:02.017Z,99047.63
2023-03-01T15:13:31.862Z,99043.00
2023-03-01T15:16:03.755Z,99043.28
2023-03-01T15:18:30.426Z,99036.56
2023-03-01T15:20:57.023Z,99042.88
2023-03-01T15:23:24.291Z,99030.59
2023-03-01T15:25:57.310Z,99029.16
2023-03-01T15:28:53.750Z,99026.97
2023-03-01T15:31:21.442Z,99023.69
2023-03-01T15:33:48.258Z,99026.56
2023-03-01T15:36:34.807Z,99021.38
2023-03-01T15:39:01.535Z,99027.19
2023-03-01T15:41:28.867Z,99014.59
2023-03-01T15:43:56.483Z,99013.75
2023-03-01T15:46:31.470Z,99026.09
2023-03-01T15:49:17.404Z,99016.63
2023-03-01T15:51:43.869Z,99032.00
2023-03-01T15:54:19.693Z,99021.28
2023-03-01T15:56:46.223Z,99019.94
2023-03-01T15:59:14.333Z,99021.41
2023-03-01T16:01:41.762Z,99018.13
2023-03-01T16:04:17.114Z,99017.06
2023-03-01T16:06:43.624Z,99024.53
2023-03-01T16:09:10.113Z,99016.88
2023-03-01T16:11:37.859Z,99027.56
2023-03-01T16:14:04.399Z,99020.78
2023-03-01T16:16:31.311Z,99020.50
2023-03-01T16:18:58.058Z,99018.31
2023-03-01T16:21:25.653Z,99012.31
2023-03-01T16:23:52.242Z,99023.28
2023-03-01T16:26:21.381Z,99027.94
2023-03-01T16:28:48.181Z,99030.53
2023-03-01T16:31:17.856Z,99031.38
2023-03-01T16:33:50.305Z,99021.78
2023-03-01T16:36:17.986Z,99022.59
2023-03-01T16:38:44.545Z,99024.84
2023-03-01T16:41:13.262Z,99025.69
2023-03-01T16:43:40.536Z,99031.66
2023-03-01T16:46:18.020Z,99026.41
2023-03-01T16:48:44.528Z,99025.59
2023-03-01T16:51:11.110Z,99027.53
2023-03-01T16:53:37.668Z,99026.63
2023-03-01T16:56:05.495Z,99025.59
2023-03-01T16:58:31.980Z,99027.78
2023-03-01T17:01:13.266Z,99026.97
2023-03-01T17:03:40.095Z,99017.56
2023-03-01T17:06:08.464Z,99031.59
2023-03-01T17:08:35.123Z,99029.66
2023-03-01T17:11:12.937Z,99033.41
2023-03-01T17:13:39.602Z,99043.03
2023-03-01T17:16:07.241Z,99033.22
2023-03-01T17:18:33.907Z,99045.84
2023-03-01T17:21:00.436Z,99035.97
2023-03-01T17:23:27.874Z,99042.56
2023-03-01T17:25:55.896Z,99037.09
2023-03-01T17:28:23.437Z,99045.94
2023-03-01T17:30:49.952Z,99048.72
2023-03-01T17:33:16.661Z,99052.06
2023-03-01T17:35:46.154Z,99066.88
2023-03-01T17:38:13.810Z,99070.72
2023-03-01T17:40:40.286Z,99074.78
2023-03-01T17:43:06.769Z,99070.97
2023-03-01T17:45:33.288Z,99077.81
2023-03-01T17:47:59.750Z,99077.81
2023-03-01T17:50:26.259Z,99087.66
2023-03-01T17:52:52.785Z,99083.28
2023-03-01T17:55:19.349Z,99080.25
2023-03-01T17:57:45.817Z,99088.75
2023-03-01T18:00:13.081Z,99089.00
2023-03-01T18:02:39.633Z,99081.38
2023-03-01T18:05:06.602Z,99080.56
2023-03-01T18:07:33.083Z,99081.63
2023-03-01T18:09:59.563Z,99086.00
2023-03-01T18:12:26.087Z,99088.47
2023-03-01T18:14:55.411Z,99082.19
2023-03-01T18:17:23.823Z,99081.38
2023-03-01T18:19:50.905Z,99085.47
2023-03-01T18:22:17.412Z,99090.41
2023-03-01T18:24:43.909Z,99083.00
2023-03-01T18:28:10.259Z,99091.47
2023-03-01T18:30:36.883Z,99080.28
2023-03-01T18:33:03.335Z,99091.09
2023-03-01T18:35:31.483Z,99083.38
2023-03-01T18:37:58.040Z,99088.31
2023-03-01T18:40:24.626Z,99081.16
2023-03-01T18:42:51.140Z,99068.41
2023-03-01T18:45:19.272Z,99076.31
2023-03-01T18:47:47.397Z,99072.44
2023-03-01T18:50:13.859Z,99077.09
2023-03-01T18:52:40.337Z,99073.00
2023-03-01T18:55:06.879Z,99067.78
2023-03-01T18:57:33.351Z,99059.28
2023-03-01T18:59:59.813Z,99056.03
2023-03-01T19:02:26.338Z,99060.47
2023-03-01T19:04:52.878Z,99052.84
2023-03-01T19:07:20.412Z,99052.25
2023-03-01T19:09:46.904Z,99053.56
2023-03-01T19:12:13.386Z,99054.91
2023-03-01T19:14:39.861Z,99058.53
2023-03-01T19:17:06.371Z,99052.53
2023-03-01T19:19:32.882Z,99048.19
2023-03-01T19:22:05.680Z,99040.28
2023-03-01T19:24:32.897Z,99045.19
2023-03-01T19:26:59.372Z,99041.91
2023-03-01T19:29:26.306Z,99044.41
2023-03-01T19:31:52.825Z,99042.47
2023-03-01T19:34:19.390Z,99041.38
2023-03-01T19:36:47.268Z,99044.94
2023-03-01T19:39:14.149Z,99037.84
2023-03-01T19:41:41.120Z,99040.88
2023-03-01T19:44:08.594Z,99034.31
2023-03-01T19:46:35.651Z,99032.94
2023-03-01T19:49:03.385Z,99041.66
2023-03-01T19:51:30.545Z,99037.03
2023-03-01T19:53:57.068Z,99036.16
2023-03-01T19:56:23.542Z,99042.13
2023-03-01T19:58:51.125Z,99038.63
2023-03-01T20:01:19.519Z,99033.72
2023-03-01T20:03:46.094Z,99037.25
2023-03-01T20:06:17.259Z,99042.94
2023-03-01T20:08:44.604Z,99044.31
2023-03-01T20:11:12.001Z,99042.91
2023-03-01T20:13:38.519Z,99033.50
2023-03-01T20:16:05.384Z,99035.41
2023-03-01T20:18:31.919Z,99034.84
2023-03-01T20:20:58.498Z,99025.31
2023-03-01T20:23:25.011Z,99020.94
2023-03-01T20:25:51.596Z,99017.38
2023-03-01T20:28:18.484Z,99023.34
2023-03-01T20:30:45.357Z,99043.13
2023-03-01T20:33:11.902Z,99049.88
2023-03-01T20:35:42.446Z,99037.69
2023-03-01T20:38:08.934Z,99036.38
2023-03-01T20:40:36.469Z,99034.19
2023-03-01T20:43:02.935Z,99030.09
2023-03-01T20:45:29.410Z,99033.38
2023-03-01T20:47:55.885Z,99043.19
2023-03-01T20:50:22.454Z,99040.13
2023-03-01T20:52:49.066Z,99047.75
2023-03-01T20:55:15.549Z,99055.69
2023-03-01T20:57:42.143Z,99037.94
2023-03-01T21:00:09.564Z,99042.78
2023-03-01T21:02:36.099Z,99040.13
2023-03-01T21:05:02.651Z,99043.38
2023-03-01T21:07:29.161Z,99053.94
2023-03-01T21:09:55.735Z,99056.19
2023-03-01T21:12:22.577Z,99046.13
2023-03-01T21:14:49.128Z,99040.72
2023-03-01T21:17:16.685Z,99036.50
2023-03-01T21:19:43.791Z,99026.22
2023-03-01T21:22:14.289Z,99018.00
2023-03-01T21:24:42.298Z,99018.09
2023-03-01T21:27:09.618Z,99015.97
2023-03-01T21:29:40.479Z,99012.13
2023-03-01T21:32:07.311Z,99022.22
2023-03-01T21:34:34.361Z,99014.31
2023-03-01T21:37:01.788Z,99016.41
2023-03-01T21:39:29.120Z,99006.84
2023-03-01T21:41:56.518Z,99007.94
2023-03-01T21:44:23.973Z,99013.63
2023-03-01T21:46:50.470Z,99019.38
2023-03-01T21:49:16.980Z,99019.38
2023-03-01T21:51:43.492Z,99014.75
2023-03-01T21:54:12.331Z,99007.63
2023-03-01T21:56:39.865Z,99008.44
2023-03-01T21:59:17.023Z,99017.47
2023-03-01T22:01:43.528Z,99009.53
2023-03-01T22:04:10.060Z,99015.69
2023-03-01T22:06:41.282Z,99014.34
2023-03-01T22:09:18.625Z,99016.53
2023-03-01T22:11:48.790Z,99004.50
2023-03-01T22:14:15.649Z,99008.53
2023-03-01T22:16:43.296Z,99007.41
2023-03-01T22:19:09.930Z,99010.19
2023-03-01T22:21:39.278Z,99018.91
2023-03-01T22:24:06.345Z,99011.50
2023-03-01T22:26:37.766Z,99009.31
2023-03-01T22:29:07.180Z,99005.53
2023-03-01T22:31:33.968Z,99002.06
2023-03-01T22:34:00.555Z,99015.66
2023-03-01T22:36:27.231Z,99013.88
2023-03-01T22:38:59.848Z,99013.38
2023-03-01T22:41:30.226Z,99007.75
2023-03-01T22:43:56.803Z,99002.78
2023-03-01T22:46:23.785Z,98997.34
2023-03-01T22:48:50.340Z,98998.69
2023-03-01T22:51:22.073Z,98985.13
2023-03-01T22:53:48.605Z,98996.75
2023-03-01T22:56:17.080Z,98995.59
2023-03-01T22:58:43.588Z,98977.97
2023-03-01T23:01:15.379Z,98973.16
2023-03-01T23:03:41.882Z,98965.53
2023-03-01T23:06:08.510Z,98961.50
2023-03-01T23:08:34.992Z,98968.03
2023-03-01T23:11:01.481Z,98959.28
2023-03-01T23:13:28.034Z,98964.47
2023-03-01T23:15:55.478Z,98959.81
2023-03-01T23:18:22.230Z,98963.97
2023-03-01T23:20:48.792Z,98975.00
2023-03-01T23:23:15.291Z,98979.53
2023-03-01T23:25:41.763Z,98993.59
2023-03-01T23:28:08.248Z,98984.16
2023-03-01T23:30:34.839Z,98983.34
2023-03-01T23:33:01.354Z,98987.72
2023-03-01T23:35:27.843Z,98990.75
2023-03-01T23:37:54.640Z,98982.59
2023-03-01T23:40:21.142Z,98995.28
2023-03-01T23:42:47.618Z,98994.41
2023-03-01T23:45:14.078Z,98992.47
2023-03-01T23:47:40.557Z,98991.09
2023-03-01T23:50:07.218Z,98989.97
2023-03-01T23:52:36.714Z,98981.34
2023-03-01T23:55:03.260Z,98977.00
2023-03-01T23:57:29.748Z,98968.31
2023-03-01T23:59:56.273Z,98963.19
